sensor_id;sensor_type;location;lat;lon;timestamp;pressure;altitude;pressure_sealevel;temperature;humidity
37852;BME280;23691;52.486;4.650;2023-04-09T00:01:16;102665.00;;;10.51;76.55
37852;BME280;23691;52.486;4.650;2023-04-09T00:03:45;102671.66;;;10.45;76.40
37852;BME280;23691;52.486;4.650;2023-04-09T00:06:13;102669.47;;;10.39;76.62
37852;BME280;23691;52.486;4.650;2023-04-09T00:08:41;102664.81;;;10.30;76.90
37852;BME280;23691;52.486;4.650;2023-04-09T00:11:07;102661.63;;;10.25;76.83
37852;BME280;23691;52.486;4.650;2023-04-09T00:13:35;102669.16;;;10.20;77.03
37852;BME280;23691;52.486;4.650;2023-04-09T00:16:03;102662.06;;;10.19;77.02
37852;BME280;23691;52.486;4.650;2023-04-09T00:20:57;102663.44;;;10.24;76.90
37852;BME280;23691;52.486;4.650;2023-04-09T00:23:23;102661.72;;;10.23;76.92
37852;BME280;23691;52.486;4.650;2023-04-09T00:25:48;102654.69;;;10.22;76.95
37852;BME280;23691;52.486;4.650;2023-04-09T00:28:14;102660.03;;;10.22;76.81
37852;BME280;23691;52.486;4.650;2023-04-09T00:30:40;102658.19;;;10.23;76.90
37852;BME280;23691;52.486;4.650;2023-04-09T00:33:05;102660.78;;;10.24;76.71
37852;BME280;23691;52.486;4.650;2023-04-09T00:35:30;102661.63;;;10.25;76.72
37852;BME280;23691;52.486;4.650;2023-04-09T00:37:59;102656.38;;;10.23;76.75
37852;BME280;23691;52.486;4.650;2023-04-09T00:40:24;102655.78;;;10.20;76.93
37852;BME280;23691;52.486;4.650;2023-04-09T00:42:50;102650.78;;;10.15;77.12
37852;BME280;23691;52.486;4.650;2023-04-09T00:45:15;102649.94;;;10.15;77.13
37852;BME280;23691;52.486;4.650;2023-04-09T00:47:41;102643.72;;;10.14;77.36
37852;BME280;23691;52.486;4.650;2023-04-09T00:50:09;102656.13;;;10.15;77.08
37852;BME280;23691;52.486;4.650;2023-04-09T00:52:35;102651.88;;;10.13;77.14
37852;BME280;23691;52.486;4.650;2023-04-09T00:55:03;102649.19;;;10.13;77.27
37852;BME280;23691;52.486;4.650;2023-04-09T00:57:31;102649.09;;;10.14;77.40
37852;BME280;23691;52.486;4.650;2023-04-09T00:59:57;102648.09;;;10.15;77.35
37852;BME280;23691;52.486;4.650;2023-04-09T01:02:22;102648.84;;;10.17;77.27
37852;BME280;23691;52.486;4.650;2023-04-09T01:04:49;102658.56;;;10.18;77.32
37852;BME280;23691;52.486;4.650;2023-04-09T01:10:39;102638.00;;;10.19;77.20
37852;BME280;23691;52.486;4.650;2023-04-09T01:13:13;102645.06;;;10.20;77.29
37852;BME280;23691;52.486;4.650;2023-04-09T01:15:47;102634.38;;;10.20;77.33
37852;BME280;23691;52.486;4.650;2023-04-09T01:20:42;102629.38;;;10.15;77.43
37852;BME280;23691;52.486;4.650;2023-04-09T01:26:20;102624.13;;;10.14;77.70
37852;BME280;23691;52.486;4.650;2023-04-09T01:28:52;102628.38;;;10.16;77.68
37852;BME280;23691;52.486;4.650;2023-04-09T01:31:19;102629.38;;;10.15;77.54
37852;BME280;23691;52.486;4.650;2023-04-09T01:33:45;102625.13;;;10.13;77.89
37852;BME280;23691;52.486;4.650;2023-04-09T01:36:12;102635.72;;;10.14;78.06
37852;BME280;23691;52.486;4.650;2023-04-09T01:38:42;102632.03;;;10.15;77.98
37852;BME280;23691;52.486;4.650;2023-04-09T01:41:11;102642.50;;;10.18;78.12
37852;BME280;23691;52.486;4.650;2023-04-09T01:43:38;102635.31;;;10.19;78.00
37852;BME280;23691;52.486;4.650;2023-04-09T01:46:06;102633.53;;;10.19;78.21
37852;BME280;23691;52.486;4.650;2023-04-09T01:48:32;102632.53;;;10.20;78.24
37852;BME280;23691;52.486;4.650;2023-04-09T01:50:58;102633.38;;;10.21;78.01
37852;BME280;23691;52.486;4.650;2023-04-09T01:53:23;102628.03;;;10.21;78.39
37852;BME280;23691;52.486;4.650;2023-04-09T01:55:53;102625.59;;;10.18;78.28
37852;BME280;23691;52.486;4.650;2023-04-09T01:58:19;102629.13;;;10.18;78.32
37852;BME280;23691;52.486;4.650;2023-04-09T02:00:49;102634.63;;;10.17;78.54
37852;BME280;23691;52.486;4.650;2023-04-09T02:05:45;102630.47;;;10.13;78.45
37852;BME280;23691;52.486;4.650;2023-04-09T02:08:17;102625.22;;;10.11;78.51
37852;BME280;23691;52.486;4.650;2023-04-09T02:10:55;102629.84;;;10.09;78.60
37852;BME280;23691;52.486;4.650;2023-04-09T02:13:25;102629.84;;;10.09;78.76
37852;BME280;23691;52.486;4.650;2023-04-09T02:15:53;102626.56;;;10.05;78.75
37852;BME280;23691;52.486;4.650;2023-04-09T02:18:26;102629.34;;;10.04;78.71
37852;BME280;23691;52.486;4.650;2023-04-09T02:20:53;102625.81;;;10.03;78.66
37852;BME280;23691;52.486;4.650;2023-04-09T02:23:19;102622.91;;;10.06;78.67
37852;BME280;23691;52.486;4.650;2023-04-09T02:25:45;102626.56;;;10.05;78.70
37852;BME280;23691;52.486;4.650;2023-04-09T02:28:10;102615.00;;;10.05;78.60
37852;BME280;23691;52.486;4.650;2023-04-09T02:30:36;102619.50;;;10.04;78.62
37852;BME280;23691;52.486;4.650;2023-04-09T02:33:01;102612.59;;;10.02;78.44
37852;BME280;23691;52.486;4.650;2023-04-09T02:35:27;102612.69;;;10.00;78.56
37852;BME280;23691;52.486;4.650;2023-04-09T02:37:52;102615.25;;;10.02;78.51
37852;BME280;23691;52.486;4.650;2023-04-09T02:40:17;102605.25;;;10.04;78.70
37852;BME280;23691;52.486;4.650;2023-04-09T02:42:43;102607.94;;;10.04;78.75
37852;BME280;23691;52.486;4.650;2023-04-09T02:45:08;102605.25;;;10.04;78.71
37852;BME280;23691;52.486;4.650;2023-04-09T02:47:34;102608.81;;;10.04;78.73
37852;BME280;23691;52.486;4.650;2023-04-09T02:49:59;102605.25;;;10.04;78.65
37852;BME280;23691;52.486;4.650;2023-04-09T02:52:25;102595.44;;;10.04;78.62
37852;BME280;23691;52.486;4.650;2023-04-09T02:54:51;102598.81;;;10.06;78.67
37852;BME280;23691;52.486;4.650;2023-04-09T02:57:17;102598.72;;;10.08;78.79
37852;BME280;23691;52.486;4.650;2023-04-09T02:59:44;102598.63;;;10.09;78.69
37852;BME280;23691;52.486;4.650;2023-04-09T03:02:09;102594.22;;;10.08;78.66
37852;BME280;23691;52.486;4.650;2023-04-09T03:04:35;102592.63;;;10.06;78.71
37852;BME280;23691;52.486;4.650;2023-04-09T03:07:03;102589.47;;;10.01;78.73
37852;BME280;23691;52.486;4.650;2023-04-09T03:09:31;102592.38;;;9.98;78.86
37852;BME280;23691;52.486;4.650;2023-04-09T03:11:57;102589.72;;;9.98;78.80
37852;BME280;23691;52.486;4.650;2023-04-09T03:14:24;102588.50;;;10.02;78.84
37852;BME280;23691;52.486;4.650;2023-04-09T03:16:50;102582.28;;;10.01;78.88
37852;BME280;23691;52.486;4.650;2023-04-09T03:19:15;102581.44;;;10.01;78.72
37852;BME280;23691;52.486;4.650;2023-04-09T03:21:41;102584.13;;;10.01;78.73
37852;BME280;23691;52.486;4.650;2023-04-09T03:24:06;102577.28;;;9.97;79.01
37852;BME280;23691;52.486;4.650;2023-04-09T03:26:32;102580.09;;;9.95;78.81
37852;BME280;23691;52.486;4.650;2023-04-09T03:29:01;102579.84;;;9.98;79.06
37852;BME280;23691;52.486;4.650;2023-04-09T03:31:27;102575.25;;;10.00;79.02
37852;BME280;23691;52.486;4.650;2023-04-09T03:33:52;102574.25;;;10.01;78.99
37852;BME280;23691;52.486;4.650;2023-04-09T03:36:17;102576.00;;;10.02;78.81
37852;BME280;23691;52.486;4.650;2023-04-09T03:38:43;102573.56;;;9.99;79.06
37852;BME280;23691;52.486;4.650;2023-04-09T03:41:08;102569.91;;;10.00;79.01
37852;BME280;23691;52.486;4.650;2023-04-09T03:43:33;102568.06;;;10.01;79.18
37852;BME280;23691;52.486;4.650;2023-04-09T03:45:59;102571.38;;;10.04;78.90
37852;BME280;23691;52.486;4.650;2023-04-09T03:48:24;102568.81;;;10.03;78.83
37852;BME280;23691;52.486;4.650;2023-04-09T03:50:50;102573.19;;;10.04;79.01
37852;BME280;23691;52.486;4.650;2023-04-09T03:53:15;102566.97;;;10.03;78.86
37852;BME280;23691;52.486;4.650;2023-04-09T03:55:44;102574.16;;;10.03;79.17
37852;BME280;23691;52.486;4.650;2023-04-09T03:58:09;102570.63;;;10.02;79.00
37852;BME280;23691;52.486;4.650;2023-04-09T04:00:35;102573.56;;;9.99;79.32
37852;BME280;23691;52.486;4.650;2023-04-09T04:03:00;102571.72;;;10.00;79.15
37852;BME280;23691;52.486;4.650;2023-04-09T04:05:26;102575.16;;;10.02;79.22
37852;BME280;23691;52.486;4.650;2023-04-09T04:07:51;102566.38;;;10.00;79.23
37852;BME280;23691;52.486;4.650;2023-04-09T04:10:17;102565.28;;;10.02;79.31
37852;BME280;23691;52.486;4.650;2023-04-09T04:12:42;102574.06;;;10.04;79.23
37852;BME280;23691;52.486;4.650;2023-04-09T04:15:08;102571.38;;;10.04;79.04
37852;BME280;23691;52.486;4.650;2023-04-09T04:17:34;102568.81;;;10.03;79.34
37852;BME280;23691;52.486;4.650;2023-04-09T04:19:59;102576.72;;;10.04;79.35
37852;BME280;23691;52.486;4.650;2023-04-09T04:22:25;102575.84;;;10.04;79.21
37852;BME280;23691;52.486;4.650;2023-04-09T04:24:50;102571.47;;;10.03;79.10
37852;BME280;23691;52.486;4.650;2023-04-09T04:27:16;102575.00;;;10.03;79.09
37852;BME280;23691;52.486;4.650;2023-04-09T04:29:41;102574.06;;;10.04;79.36
37852;BME280;23691;52.486;4.650;2023-04-09T04:32:06;102572.22;;;10.05;79.17
37852;BME280;23691;52.486;4.650;2023-04-09T04:34:32;102570.88;;;10.10;78.93
37852;BME280;23691;52.486;4.650;2023-04-09T04:36:57;102576.34;;;10.09;78.87
37852;BME280;23691;52.486;4.650;2023-04-09T04:39:22;102578.06;;;10.10;79.11
37852;BME280;23691;52.486;4.650;2023-04-09T04:41:48;102576.34;;;10.09;78.97
37852;BME280;23691;52.486;4.650;2023-04-09T04:44:13;102574.41;;;10.11;78.91
37852;BME280;23691;52.486;4.650;2023-04-09T04:46:38;102570.88;;;10.10;79.03
37852;BME280;23691;52.486;4.650;2023-04-09T04:49:04;102566.53;;;10.09;78.99
37852;BME280;23691;52.486;4.650;2023-04-09T04:51:32;102563.72;;;10.11;78.76
37852;BME280;23691;52.486;4.650;2023-04-09T04:54:00;102563.72;;;10.11;78.94
37852;BME280;23691;52.486;4.650;2023-04-09T04:56:25;102562.00;;;10.10;78.57
37852;BME280;23691;52.486;4.650;2023-04-09T04:58:51;102565.66;;;10.09;78.64
37852;BME280;23691;52.486;4.650;2023-04-09T05:01:16;102567.25;;;10.12;78.54
37852;BME280;23691;52.486;4.650;2023-04-09T05:03:45;102569.78;;;10.13;78.50
37852;BME280;23691;52.486;4.650;2023-04-09T05:06:10;102568.84;;;10.14;78.36
37852;BME280;23691;52.486;4.650;2023-04-09T05:08:36;102582.91;;;10.16;78.65
37852;BME280;23691;52.486;4.650;2023-04-09T05:11:01;102580.97;;;10.18;78.58
37852;BME280;23691;52.486;4.650;2023-04-09T05:13:26;102583.66;;;10.18;78.31
37852;BME280;23691;52.486;4.650;2023-04-09T05:15:52;102583.56;;;10.20;78.48
37852;BME280;23691;52.486;4.650;2023-04-09T05:18:20;102574.91;;;10.16;78.65
37852;BME280;23691;52.486;4.650;2023-04-09T05:20:45;102580.97;;;10.18;78.71
37852;BME280;23691;52.486;4.650;2023-04-09T05:23:11;102582.72;;;10.19;78.58
37852;BME280;23691;52.486;4.650;2023-04-09T05:25:37;102579.91;;;10.21;78.56
37852;BME280;23691;52.486;4.650;2023-04-09T05:28:03;102582.34;;;10.24;78.57
37852;BME280;23691;52.486;4.650;2023-04-09T05:30:28;102587.56;;;10.25;78.54
37852;BME280;23691;52.486;4.650;2023-04-09T05:32:53;102588.41;;;10.26;78.33
37852;BME280;23691;52.486;4.650;2023-04-09T05:35:19;102591.09;;;10.26;78.43
37852;BME280;23691;52.486;4.650;2023-04-09T05:37:44;102581.16;;;10.28;78.39
37852;BME280;23691;52.486;4.650;2023-04-09T05:40:10;102592.59;;;10.30;78.36
37852;BME280;23691;52.486;4.650;2023-04-09T05:42:35;102578.22;;;10.31;78.41
37852;BME280;23691;52.486;4.650;2023-04-09T05:45:02;102582.88;;;10.29;78.24
37852;BME280;23691;52.486;4.650;2023-04-09T05:47:27;102582.88;;;10.29;78.40
37852;BME280;23691;52.486;4.650;2023-04-09T05:49:52;102577.38;;;10.30;78.52
37852;BME280;23691;52.486;4.650;2023-04-09T05:52:18;102581.63;;;10.33;78.44
37852;BME280;23691;52.486;4.650;2023-04-09T05:54:44;102583.47;;;10.32;78.31
37852;BME280;23691;52.486;4.650;2023-04-09T05:57:09;102581.78;;;10.31;78.51
37852;BME280;23691;52.486;4.650;2023-04-09T05:59:34;102587.97;;;10.32;78.39
37852;BME280;23691;52.486;4.650;2023-04-09T06:02:01;102590.50;;;10.34;78.49
37852;BME280;23691;52.486;4.650;2023-04-09T06:04:26;102583.22;;;10.36;78.34
37852;BME280;23691;52.486;4.650;2023-04-09T06:06:51;102595.88;;;10.34;78.43
37852;BME280;23691;52.486;4.650;2023-04-09T06:09:17;102592.59;;;10.30;78.52
37852;BME280;23691;52.486;4.650;2023-04-09T06:11:42;102598.78;;;10.30;78.46
37852;BME280;23691;52.486;4.650;2023-04-09T06:14:07;102591.50;;;10.32;78.46
37852;BME280;23691;52.486;4.650;2023-04-09T06:16:33;102592.22;;;10.35;78.39
37852;BME280;23691;52.486;4.650;2023-04-09T06:18:59;102595.50;;;10.38;78.27
37852;BME280;23691;52.486;4.650;2023-04-09T06:21:24;102595.66;;;10.37;78.46
37852;BME280;23691;52.486;4.650;2023-04-09T06:23:49;102591.13;;;10.37;78.26
37852;BME280;23691;52.486;4.650;2023-04-09T06:26:17;102596.25;;;10.40;78.31
37852;BME280;23691;52.486;4.650;2023-04-09T06:28:42;102595.41;;;10.40;78.10
37852;BME280;23691;52.486;4.650;2023-04-09T06:31:08;102600.50;;;10.43;78.13
37852;BME280;23691;52.486;4.650;2023-04-09T06:33:33;102595.78;;;10.46;78.28
37852;BME280;23691;52.486;4.650;2023-04-09T06:35:59;102603.81;;;10.46;77.93
37852;BME280;23691;52.486;4.650;2023-04-09T06:38:24;102605.59;;;10.46;77.93
37852;BME280;23691;52.486;4.650;2023-04-09T06:40:50;102601.13;;;10.46;77.80
37852;BME280;23691;52.486;4.650;2023-04-09T06:43:16;102606.22;;;10.49;77.81
37852;BME280;23691;52.486;4.650;2023-04-09T06:45:41;102603.44;;;10.51;77.83
37852;BME280;23691;52.486;4.650;2023-04-09T06:48:06;102601.34;;;10.55;77.68
37852;BME280;23691;52.486;4.650;2023-04-09T06:50:32;102608.28;;;10.57;77.79
37852;BME280;23691;52.486;4.650;2023-04-09T06:52:57;102608.19;;;10.59;77.53
37852;BME280;23691;52.486;4.650;2023-04-09T06:55:22;102608.03;;;10.60;77.60
37852;BME280;23691;52.486;4.650;2023-04-09T06:57:48;102604.63;;;10.58;77.70
37852;BME280;23691;52.486;4.650;2023-04-09T07:00:13;102610.72;;;10.60;77.60
37852;BME280;23691;52.486;4.650;2023-04-09T07:02:39;102595.41;;;10.62;77.73
37852;BME280;23691;52.486;4.650;2023-04-09T07:05:04;102600.50;;;10.65;77.52
37852;BME280;23691;52.486;4.650;2023-04-09T07:07:30;102604.75;;;10.68;77.46
37852;BME280;23691;52.486;4.650;2023-04-09T07:09:56;102597.47;;;10.70;77.72
37852;BME280;23691;52.486;4.650;2023-04-09T07:12:31;102597.47;;;10.70;77.40
37852;BME280;23691;52.486;4.650;2023-04-09T07:15:00;102596.38;;;10.72;77.39
37852;BME280;23691;52.486;4.650;2023-04-09T07:17:27;102595.50;;;10.72;77.44
37852;BME280;23691;52.486;4.650;2023-04-09T07:19:52;102598.81;;;10.76;77.34
37852;BME280;23691;52.486;4.650;2023-04-09T07:22:20;102597.72;;;10.78;77.30
37852;BME280;23691;52.486;4.650;2023-04-09T07:24:46;102606.59;;;10.79;77.27
37852;BME280;23691;52.486;4.650;2023-04-09T07:27:22;102600.41;;;10.78;77.01
37852;BME280;23691;52.486;4.650;2023-04-09T07:29:48;102606.44;;;10.80;77.20
37852;BME280;23691;52.486;4.650;2023-04-09T07:32:13;102599.41;;;10.79;77.06
37852;BME280;23691;52.486;4.650;2023-04-09T07:34:40;102603.78;;;10.80;77.04
37852;BME280;23691;52.486;4.650;2023-04-09T07:37:05;102598.41;;;10.80;77.12
37852;BME280;23691;52.486;4.650;2023-04-09T07:39:31;102592.94;;;10.82;77.20
37852;BME280;23691;52.486;4.650;2023-04-09T07:41:57;102594.91;;;10.80;77.22
37852;BME280;23691;52.486;4.650;2023-04-09T07:44:22;102597.56;;;10.80;77.35
37852;BME280;23691;52.486;4.650;2023-04-09T07:46:48;102598.31;;;10.82;77.22
37852;BME280;23691;52.486;4.650;2023-04-09T07:49:14;102597.31;;;10.83;77.31
37852;BME280;23691;52.486;4.650;2023-04-09T07:51:40;102594.53;;;10.84;77.17
37852;BME280;23691;52.486;4.650;2023-04-09T07:54:06;102596.22;;;10.85;77.14
37852;BME280;23691;52.486;4.650;2023-04-09T07:56:31;102593.53;;;10.85;76.92
37852;BME280;23691;52.486;4.650;2023-04-09T07:58:56;102606.81;;;10.87;77.11
37852;BME280;23691;52.486;4.650;2023-04-09T08:01:22;102598.53;;;10.90;76.99
37852;BME280;23691;52.486;4.650;2023-04-09T08:03:49;102594.91;;;10.91;76.81
37852;BME280;23691;52.486;4.650;2023-04-09T08:06:15;102596.94;;;10.87;77.01
37852;BME280;23691;52.486;4.650;2023-04-09T08:08:40;102602.19;;;10.89;77.10
37852;BME280;23691;52.486;4.650;2023-04-09T08:11:08;102611.06;;;10.89;76.92
37852;BME280;23691;52.486;4.650;2023-04-09T08:13:33;102608.41;;;10.89;77.02
37852;BME280;23691;52.486;4.650;2023-04-09T08:16:00;102609.25;;;10.90;76.85
37852;BME280;23691;52.486;4.650;2023-04-09T08:18:26;102600.97;;;10.93;76.88
37852;BME280;23691;52.486;4.650;2023-04-09T08:20:51;102590.13;;;10.94;76.68
37852;BME280;23691;52.486;4.650;2023-04-09T08:23:17;102590.88;;;10.96;76.72
37852;BME280;23691;52.486;4.650;2023-04-09T08:25:42;102593.44;;;10.98;76.64
37852;BME280;23691;52.486;4.650;2023-04-09T08:28:07;102589.03;;;10.97;76.48
37852;BME280;23691;52.486;4.650;2023-04-09T08:30:33;102595.38;;;10.96;76.54
37852;BME280;23691;52.486;4.650;2023-04-09T08:32:59;102595.22;;;10.98;76.48
37852;BME280;23691;52.486;4.650;2023-04-09T08:35:25;102603.16;;;10.99;76.43
37852;BME280;23691;52.486;4.650;2023-04-09T08:37:53;102602.19;;;11.00;76.36
37852;BME280;23691;52.486;4.650;2023-04-09T08:40:19;102605.09;;;10.97;76.37
37852;BME280;23691;52.486;4.650;2023-04-09T08:42:45;102598.91;;;10.96;76.50
37852;BME280;23691;52.486;4.650;2023-04-09T08:45:12;102605.84;;;10.99;76.54
37852;BME280;23691;52.486;4.650;2023-04-09T08:47:40;102597.69;;;11.01;76.28
37852;BME280;23691;52.486;4.650;2023-04-09T08:50:07;102598.75;;;11.09;76.21
37852;BME280;23691;52.486;4.650;2023-04-09T08:52:34;102602.03;;;11.13;75.96
37852;BME280;23691;52.486;4.650;2023-04-09T08:55:00;102595.84;;;11.12;75.85
37852;BME280;23691;52.486;4.650;2023-04-09T08:57:26;102604.56;;;11.14;76.03
37852;BME280;23691;52.486;4.650;2023-04-09T08:59:51;102597.41;;;11.15;76.11
37852;BME280;23691;52.486;4.650;2023-04-09T09:02:17;102601.66;;;11.17;75.92
37852;BME280;23691;52.486;4.650;2023-04-09T09:04:44;102601.66;;;11.17;75.70
37852;BME280;23691;52.486;4.650;2023-04-09T09:07:11;102591.06;;;11.16;75.73
37852;BME280;23691;52.486;4.650;2023-04-09T09:09:49;102593.63;;;11.17;75.95
37852;BME280;23691;52.486;4.650;2023-04-09T09:12:40;102589.13;;;11.18;75.61
37852;BME280;23691;52.486;4.650;2023-04-09T09:15:28;102595.22;;;11.20;75.83
37852;BME280;23691;52.486;4.650;2023-04-09T09:17:57;102595.44;;;11.17;75.80
37852;BME280;23691;52.486;4.650;2023-04-09T09:20:23;102599.84;;;11.18;75.77
37852;BME280;23691;52.486;4.650;2023-04-09T09:22:50;102598.84;;;11.19;75.54
37852;BME280;23691;52.486;4.650;2023-04-09T09:25:16;102599.56;;;11.21;75.66
37852;BME280;23691;52.486;4.650;2023-04-09T09:27:42;102599.31;;;11.24;75.58
37852;BME280;23691;52.486;4.650;2023-04-09T09:30:09;102606.03;;;11.30;75.76
37852;BME280;23691;52.486;4.650;2023-04-09T09:32:44;102603.34;;;11.30;75.31
37852;BME280;23691;52.486;4.650;2023-04-09T09:35:10;102599.78;;;11.29;75.51
37852;BME280;23691;52.486;4.650;2023-04-09T09:37:35;102600.41;;;11.33;75.03
37852;BME280;23691;52.486;4.650;2023-04-09T09:40:01;102595.78;;;11.35;75.22
37852;BME280;23691;52.486;4.650;2023-04-09T09:42:26;102590.25;;;11.36;75.44
37852;BME280;23691;52.486;4.650;2023-04-09T09:44:53;102593.56;;;11.40;75.47
37852;BME280;23691;52.486;4.650;2023-04-09T09:47:25;102584.25;;;11.44;75.32
37852;BME280;23691;52.486;4.650;2023-04-09T09:49:57;102581.47;;;11.46;75.12
37852;BME280;23691;52.486;4.650;2023-04-09T09:52:24;102583.66;;;11.52;75.02
37852;BME280;23691;52.486;4.650;2023-04-09T09:54:53;102584.22;;;11.55;75.13
37852;BME280;23691;52.486;4.650;2023-04-09T09:57:20;102584.22;;;11.55;74.89
37852;BME280;23691;52.486;4.650;2023-04-09T09:59:54;102575.94;;;11.58;74.75
37852;BME280;23691;52.486;4.650;2023-04-09T10:02:40;102576.66;;;11.60;74.84
37852;BME280;23691;52.486;4.650;2023-04-09T10:05:15;102572.03;;;11.63;74.53
37852;BME280;23691;52.486;4.650;2023-04-09T10:07:41;102564.16;;;11.71;74.50
37852;BME280;23691;52.486;4.650;2023-04-09T10:10:08;102567.31;;;11.76;74.16
37852;BME280;23691;52.486;4.650;2023-04-09T10:12:34;102566.91;;;11.80;74.16
37852;BME280;23691;52.486;4.650;2023-04-09T10:15:06;102553.03;;;11.87;74.13
37852;BME280;23691;52.486;4.650;2023-04-09T10:17:35;102547.53;;;11.88;73.94
37852;BME280;23691;52.486;4.650;2023-04-09T10:20:11;102547.00;;;11.94;73.93
37852;BME280;23691;52.486;4.650;2023-04-09T10:22:44;102545.06;;;11.96;73.69
37852;BME280;23691;52.486;4.650;2023-04-09T10:25:10;102537.44;;;12.01;73.61
37852;BME280;23691;52.486;4.650;2023-04-09T10:27:41;102536.47;;;12.02;73.56
37852;BME280;23691;52.486;4.650;2023-04-09T10:30:35;102539.75;;;12.06;73.42
37852;BME280;23691;52.486;4.650;2023-04-09T10:33:12;102537.91;;;12.07;73.23
37852;BME280;23691;52.486;4.650;2023-04-09T10:35:40;102538.63;;;12.09;72.99
37852;BME280;23691;52.486;4.650;2023-04-09T10:38:07;102538.47;;;12.10;72.93
37852;BME280;23691;52.486;4.650;2023-04-09T10:40:49;102539.78;;;12.16;72.66
37852;BME280;23691;52.486;4.650;2023-04-09T10:43:18;102537.56;;;12.21;72.51
37852;BME280;23691;52.486;4.650;2023-04-09T10:45:44;102535.88;;;12.30;72.29
37852;BME280;23691;52.486;4.650;2023-04-09T10:48:11;102537.66;;;12.50;71.74
37852;BME280;23691;52.486;4.650;2023-04-09T10:50:38;102528.69;;;12.71;71.40
37852;BME280;23691;52.486;4.650;2023-04-09T10:53:03;102535.38;;;12.86;71.22
37852;BME280;23691;52.486;4.650;2023-04-09T10:58:10;102517.72;;;13.03;70.59
37852;BME280;23691;52.486;4.650;2023-04-09T11:00:41;102525.63;;;13.14;70.71
37852;BME280;23691;52.486;4.650;2023-04-09T11:03:25;102518.28;;;13.26;70.36
37852;BME280;23691;52.486;4.650;2023-04-09T11:06:02;102515.22;;;13.30;70.14
37852;BME280;23691;52.486;4.650;2023-04-09T11:08:31;102505.00;;;13.53;69.50
37852;BME280;23691;52.486;4.650;2023-04-09T11:10:57;102510.50;;;13.81;68.92
37852;BME280;23691;52.486;4.650;2023-04-09T11:13:25;102501.50;;;14.00;68.62
37852;BME280;23691;52.486;4.650;2023-04-09T11:15:52;102488.38;;;14.25;68.00
37852;BME280;23691;52.486;4.650;2023-04-09T11:18:19;102494.75;;;14.51;67.73
37852;BME280;23691;52.486;4.650;2023-04-09T11:20:46;102484.91;;;14.70;66.98
37852;BME280;23691;52.486;4.650;2023-04-09T11:23:12;102485.25;;;14.85;66.55
37852;BME280;23691;52.486;4.650;2023-04-09T11:25:37;102487.00;;;14.94;66.36
37852;BME280;23691;52.486;4.650;2023-04-09T11:28:03;102483.94;;;15.07;65.79
37852;BME280;23691;52.486;4.650;2023-04-09T11:30:29;102480.47;;;15.14;65.38
37852;BME280;23691;52.486;4.650;2023-04-09T11:32:55;102472.75;;;15.19;65.08
37852;BME280;23691;52.486;4.650;2023-04-09T11:35:21;102478.91;;;15.30;64.95
37852;BME280;23691;52.486;4.650;2023-04-09T11:37:47;102472.50;;;15.49;64.25
37852;BME280;23691;52.486;4.650;2023-04-09T11:40:22;102472.41;;;15.58;64.13
37852;BME280;23691;52.486;4.650;2023-04-09T11:42:50;102473.75;;;15.62;63.73
37852;BME280;23691;52.486;4.650;2023-04-09T11:45:17;102473.38;;;15.75;63.65
37852;BME280;23691;52.486;4.650;2023-04-09T11:47:44;102468.50;;;15.79;63.68
37852;BME280;23691;52.486;4.650;2023-04-09T11:50:12;102462.59;;;15.75;63.29
37852;BME280;23691;52.486;4.650;2023-04-09T11:52:40;102466.75;;;15.70;63.07
37852;BME280;23691;52.486;4.650;2023-04-09T11:55:07;102465.66;;;15.80;62.98
37852;BME280;23691;52.486;4.650;2023-04-09T11:57:45;102466.91;;;15.94;62.24
37852;BME280;23691;52.486;4.650;2023-04-09T12:00:15;102463.81;;;16.15;61.69
37852;BME280;23691;52.486;4.650;2023-04-09T12:02:43;102461.22;;;16.40;61.60
37852;BME280;23691;52.486;4.650;2023-04-09T12:05:29;102456.69;;;16.57;60.98
37852;BME280;23691;52.486;4.650;2023-04-09T12:08:00;102454.84;;;16.57;60.61
37852;BME280;23691;52.486;4.650;2023-04-09T12:10:30;102451.84;;;16.77;59.89
37852;BME280;23691;52.486;4.650;2023-04-09T12:13:06;102455.75;;;16.82;59.63
37852;BME280;23691;52.486;4.650;2023-04-09T12:15:33;102464.06;;;16.89;59.37
37852;BME280;23691;52.486;4.650;2023-04-09T12:17:59;102461.34;;;16.97;59.35
37852;BME280;23691;52.486;4.650;2023-04-09T12:20:40;102467.78;;;16.96;58.82
37852;BME280;23691;52.486;4.650;2023-04-09T12:23:08;102461.34;;;16.89;59.27
37852;BME280;23691;52.486;4.650;2023-04-09T12:25:36;102463.56;;;16.93;59.16
37852;BME280;23691;52.486;4.650;2023-04-09T12:28:06;102461.34;;;16.89;58.85
37852;BME280;23691;52.486;4.650;2023-04-09T12:30:33;102465.25;;;16.86;58.42
37852;BME280;23691;52.486;4.650;2023-04-09T12:32:59;102469.63;;;16.87;58.45
37852;BME280;23691;52.486;4.650;2023-04-09T12:35:24;102471.16;;;16.98;58.77
37852;BME280;23691;52.486;4.650;2023-04-09T12:37:50;102460.34;;;17.06;58.42
37852;BME280;23691;52.486;4.650;2023-04-09T12:40:19;102466.44;;;17.25;57.75
37852;BME280;23691;52.486;4.650;2023-04-09T12:42:45;102461.03;;;17.25;58.16
37852;BME280;23691;52.486;4.650;2023-04-09T12:45:16;102453.94;;;17.24;57.83
37852;BME280;23691;52.486;4.650;2023-04-09T12:47:42;102453.25;;;17.22;58.26
37852;BME280;23691;52.486;4.650;2023-04-09T12:50:09;102450.91;;;17.19;58.30
37852;BME280;23691;52.486;4.650;2023-04-09T12:52:35;102449.69;;;17.29;57.78
37852;BME280;23691;52.486;4.650;2023-04-09T12:55:01;102455.09;;;17.54;57.81
37852;BME280;23691;52.486;4.650;2023-04-09T12:57:27;102452.56;;;17.52;57.68
37852;BME280;23691;52.486;4.650;2023-04-09T12:59:53;102457.28;;;17.58;57.39
37852;BME280;23691;52.486;4.650;2023-04-09T13:02:19;102443.53;;;17.76;57.22
37852;BME280;23691;52.486;4.650;2023-04-09T13:04:46;102448.25;;;17.74;57.62
37852;BME280;23691;52.486;4.650;2023-04-09T13:07:12;102445.88;;;18.04;56.85